This is the latest recevied weather packets stored in our database for station/object DL8TF-13. If no packets are shown the sender has not sent any weather packets the latest 10 day(s).
| Time | Temp. | Humidity | Pressure | Rain* | Wind** | Luminosity | Snow |
|---|---|---|---|---|---|---|---|
| 1777701218 | 10° C | 65% | 991 hPa | - | - | - | - |
| 1777700618 | 9.44° C | 65% | 991 hPa | - | - | - | - |
| 1777700018 | 8.89° C | 67% | 991 hPa | - | - | - | - |
| 1777699418 | 8.33° C | 69% | 991 hPa | - | - | - | - |
| 1777698818 | 7.78° C | 70% | 991 hPa | - | - | - | - |
| 1777698218 | 7.22° C | 71% | 991 hPa | - | - | - | - |
| 1777697618 | 7.22° C | 70% | 991 hPa | - | - | - | - |
| 1777697018 | 7.78° C | 66% | 991 hPa | - | - | - | - |
| 1777696418 | 6.67° C | 71% | 991 hPa | - | - | - | - |
| 1777695818 | 6.67° C | 70% | 991 hPa | - | - | - | - |
| 1777695218 | 7.22° C | 69% | 990 hPa | - | - | - | - |
| 1777694618 | 7.78° C | 65% | 990 hPa | - | - | - | - |
| 1777694018 | 7.78° C | 64% | 990 hPa | - | - | - | - |
| 1777693418 | 7.22° C | 70% | 990 hPa | - | - | - | - |
| 1777692818 | 7.22° C | 70% | 990 hPa | - | - | - | - |
| 1777692217 | 7.78° C | 67% | 990 hPa | - | - | - | - |
| 1777691617 | 8.33° C | 66% | 991 hPa | - | - | - | - |
| 1777691017 | 8.89° C | 62% | 991 hPa | - | - | - | - |
| 1777690417 | 8.89° C | 63% | 991 hPa | - | - | - | - |
| 1777689817 | 8.33° C | 66% | 991 hPa | - | - | - | - |
| 1777689217 | 8.33° C | 65% | 991 hPa | - | - | - | - |
| 1777688617 | 9.44° C | 59% | 991 hPa | - | - | - | - |
| 1777688017 | 8.89° C | 63% | 991 hPa | - | - | - | - |
| 1777687417 | 8.89° C | 64% | 991 hPa | - | - | - | - |
| 1777686817 | 8.89° C | 60% | 991 hPa | - | - | - | - |
* Rain since midnight (hover to see other rain measurements)
** Current wind speed in m/s (hover to see current wind gust speed)